Luba, Equatorial Guinea
Current Conditions -  °F | °C
As of 7:00 AM on Thursday 29 Jan 2015 (Local Time) from FKKD Reporting Station
Haze Haze  
Wind Chill: 77°   Ceiling: Unl
Heat Index: 78°   Visibility: 1.5mi
Dew Point: 75°   Wind: 0mph
Humidity: 94%   Direction: NA
Pressure: 29.83"   Gusts: NA
Location:  3.46°N, 8.55°E
Report Text: FKKD 290600Z 00000KT 2500 BR SCT013 FEW016CB 25/24 Q1010 BECMG4000 BR
Loading
Personal Weather Stations






























Interactive Weather Map New forecast layout! Learn more

10-Day Weather Forecast

Advertisements
Track Severe Weather on mobile